Time,TemperatureF,DewpointF,PressureIn,WindDirection,WindDirectionDegrees,WindSpeedMPH,WindSpeedGustMPH,Humidity,HourlyPrecipIn,Conditions,Clouds,dailyrainin,SoftwareType,DateUTC
2013-08-13 00:12:00,56.0,46.0,30.08,NNE,21,1.0,3.0,69,0.00,,,0.00,,2013-08-13 05:12:00,
2013-08-13 00:21:00,55.0,46.0,30.09,North,6,1.0,3.0,71,0.00,,,0.00,,2013-08-13 05:21:00,
2013-08-13 00:52:00,51.0,44.0,30.09,West,260,0.0,1.0,78,0.00,,,0.00,,2013-08-13 05:52:00,
2013-08-13 01:11:00,50.0,45.0,30.10,West,274,0.0,1.0,84,0.00,,,0.00,,2013-08-13 06:11:00,
2013-08-13 01:21:00,49.0,44.0,30.10,West,270,0.0,1.0,83,0.00,,,0.00,,2013-08-13 06:21:00,
2013-08-13 01:42:00,49.0,44.0,30.11,WNW,283,0.0,1.0,83,0.00,,,0.00,,2013-08-13 06:42:00,
2013-08-13 01:52:00,50.0,45.0,30.11,West,280,0.0,2.0,82,0.00,,,0.00,,2013-08-13 06:52:00,
2013-08-13 02:12:00,49.0,44.0,30.11,West,281,0.0,2.0,83,0.00,,,0.00,,2013-08-13 07:12:00,
2013-08-13 02:21:00,49.0,44.0,30.11,West,276,2.0,3.0,83,0.00,,,0.00,,2013-08-13 07:21:00,
2013-08-13 02:42:00,48.0,43.0,30.11,West,269,0.0,1.0,83,0.00,,,0.00,,2013-08-13 07:42:00,
2013-08-13 02:52:00,48.0,43.0,30.11,WNW,293,2.0,3.0,83,0.00,,,0.00,,2013-08-13 07:52:00,
2013-08-13 03:11:00,49.0,44.0,30.11,WNW,299,2.0,4.0,82,0.00,,,0.00,,2013-08-13 08:11:00,
2013-08-13 03:22:00,48.0,43.0,30.11,WNW,297,1.0,3.0,82,0.00,,,0.00,,2013-08-13 08:22:00,
2013-08-13 03:42:00,47.0,42.0,30.11,WNW,295,2.0,4.0,84,0.00,,,0.00,,2013-08-13 08:42:00,
2013-08-13 03:52:00,47.0,42.0,30.11,WNW,295,2.0,3.0,84,0.00,,,0.00,,2013-08-13 08:52:00,
2013-08-13 04:11:00,47.0,43.0,30.11,West,276,1.0,3.0,85,0.00,,,0.00,,2013-08-13 09:11:00,
2013-08-13 04:22:00,46.0,42.0,30.11,West,274,0.0,0.0,86,0.00,,,0.00,,2013-08-13 09:22:00,
2013-08-13 04:43:00,45.0,42.0,30.11,WNW,283,0.0,1.0,89,0.00,,,0.00,,2013-08-13 09:43:00,
2013-08-13 04:53:00,46.0,42.0,30.11,WSW,257,1.0,2.0,86,0.00,,,0.00,,2013-08-13 09:53:00,
2013-08-13 05:12:00,45.0,42.0,30.12,West,263,0.0,1.0,89,0.00,,,0.00,,2013-08-13 10:12:00,
2013-08-13 05:23:00,47.0,43.0,30.12,WNW,291,2.0,4.0,86,0.00,,,0.00,,2013-08-13 10:23:00,
2013-08-13 05:42:00,45.0,41.0,30.12,WNW,295,0.0,2.0,87,0.00,,,0.00,,2013-08-13 10:42:00,
2013-08-13 05:52:00,46.0,42.0,30.12,WNW,297,1.0,3.0,87,0.00,,,0.00,,2013-08-13 10:52:00,
2013-08-13 06:11:00,45.0,42.0,30.12,WNW,292,0.0,2.0,88,0.00,,,0.00,,2013-08-13 11:11:00,
2013-08-13 06:22:00,45.0,42.0,30.12,WNW,300,2.0,4.0,88,0.00,,,0.00,,2013-08-13 11:22:00,
2013-08-13 06:42:00,45.0,43.0,30.12,NW,306,2.0,4.0,91,0.00,,,0.00,,2013-08-13 11:42:00,
2013-08-13 06:52:00,46.0,43.0,30.12,NW,313,0.0,2.0,89,0.00,,,0.00,,2013-08-13 11:52:00,
2013-08-13 07:12:00,45.0,41.0,30.13,West,278,1.0,2.0,87,0.00,,,0.00,,2013-08-13 12:12:00,
2013-08-13 07:21:00,45.0,42.0,30.14,WNW,285,1.0,3.0,90,0.00,,,0.00,,2013-08-13 12:21:00,
2013-08-13 07:42:00,46.0,43.0,30.14,WNW,293,1.0,3.0,88,0.00,,,0.00,,2013-08-13 12:42:00,
2013-08-13 07:52:00,47.0,44.0,30.14,WNW,302,1.0,2.0,89,0.00,,,0.00,,2013-08-13 12:52:00,
2013-08-13 08:11:00,47.0,44.0,30.15,WNW,294,1.0,4.0,88,0.00,,,0.00,,2013-08-13 13:11:00,
2013-08-13 08:22:00,50.0,47.0,30.16,NW,314,1.0,3.0,88,0.00,,,0.00,,2013-08-13 13:22:00,
2013-08-13 08:42:00,52.0,48.0,30.16,NNE,16,1.0,4.0,86,0.00,,,0.00,,2013-08-13 13:42:00,
2013-08-13 08:52:00,53.0,48.0,30.16,NW,314,3.0,5.0,83,0.00,,,0.00,,2013-08-13 13:52:00,
2013-08-13 09:11:00,54.0,49.0,30.16,North,11,4.0,6.0,82,0.00,,,0.00,,2013-08-13 14:11:00,
2013-08-13 09:22:00,55.0,49.0,30.16,North,360,3.0,7.0,80,0.00,,,0.00,,2013-08-13 14:22:00,
2013-08-13 09:42:00,57.0,51.0,30.16,NE,34,2.0,4.0,79,0.00,,,0.00,,2013-08-13 14:42:00,
2013-08-13 09:52:00,58.0,51.0,30.16,NNW,344,1.0,2.0,77,0.00,,,0.00,,2013-08-13 14:52:00,
2013-08-13 10:11:00,59.0,50.0,30.17,West,267,3.0,5.0,73,0.00,,,0.00,,2013-08-13 15:11:00,
2013-08-13 10:21:00,60.0,51.0,30.16,North,360,3.0,7.0,72,0.00,,,0.00,,2013-08-13 15:21:00,
2013-08-13 10:44:00,61.0,51.0,30.17,North,8,2.0,6.0,70,0.00,,,0.00,,2013-08-13 15:44:00,
2013-08-13 10:54:00,63.0,52.0,30.16,NNW,330,3.0,9.0,67,0.00,,,0.00,,2013-08-13 15:54:00,
2013-08-13 11:13:00,64.0,52.0,30.16,North,356,2.0,6.0,65,0.00,,,0.00,,2013-08-13 16:13:00,
2013-08-13 11:23:00,65.0,51.0,30.16,NNW,346,4.0,7.0,61,0.00,,,0.00,,2013-08-13 16:23:00,
2013-08-13 11:54:00,67.0,51.0,30.16,North,8,5.0,8.0,57,0.00,,,0.00,,2013-08-13 16:54:00,
2013-08-13 12:16:00,68.0,51.0,30.15,NNE,20,3.0,6.0,55,0.00,,,0.00,,2013-08-13 17:16:00,
2013-08-13 12:27:00,69.0,52.0,30.15,NE,40,3.0,9.0,54,0.00,,,0.00,,2013-08-13 17:27:00,
2013-08-13 12:46:00,-999.0,-99.9,30.16,SE,131,3.0,9.0,51,0.00,,,0.00,,2013-08-13 17:46:00,
2013-08-13 12:56:00,70.0,48.0,30.15,East,79,2.0,8.0,46,0.00,,,0.00,,2013-08-13 17:56:00,
2013-08-13 13:15:00,70.0,50.0,30.15,SW,223,1.0,5.0,49,0.00,,,0.00,,2013-08-13 18:15:00,
2013-08-13 13:25:00,71.0,49.0,30.15,East,90,2.0,9.0,46,0.00,,,0.00,,2013-08-13 18:25:00,
2013-08-13 13:44:00,71.0,47.0,30.15,NNE,19,3.0,7.0,43,0.00,,,0.00,,2013-08-13 18:44:00,
2013-08-13 13:56:00,72.0,48.0,30.14,ESE,103,2.0,6.0,42,0.00,,,0.00,,2013-08-13 18:56:00,
2013-08-13 14:14:00,72.0,48.0,30.14,East,100,2.0,7.0,42,0.00,,,0.00,,2013-08-13 19:14:00,
2013-08-13 14:24:00,72.0,48.0,30.14,NNW,347,4.0,7.0,43,0.00,,,0.00,,2013-08-13 19:24:00,
2013-08-13 14:44:00,73.0,49.0,30.14,NNE,33,3.0,9.0,42,0.00,,,0.00,,2013-08-13 19:44:00,
2013-08-13 14:55:00,73.0,49.0,30.14,North,1,1.0,5.0,42,0.00,,,0.00,,2013-08-13 19:55:00,
2013-08-13 15:04:00,73.0,49.0,30.14,North,1,1.0,5.0,42,0.00,,,0.00,,2013-08-13 20:04:00,
2013-08-13 15:15:00,73.0,49.0,30.14,North,1,1.0,5.0,42,0.00,,,0.00,,2013-08-13 20:15:00,
2013-08-13 15:22:00,73.0,47.0,30.12,ENE,71,1.0,5.0,40,0.00,,,0.00,,2013-08-13 20:22:00,
2013-08-13 15:53:00,73.0,43.0,30.12,NNW,328,2.0,8.0,34,0.00,,,0.00,,2013-08-13 20:53:00,
2013-08-13 16:11:00,73.0,44.0,30.11,ENE,61,5.0,10.0,36,0.00,,,0.00,,2013-08-13 21:11:00,
2013-08-13 16:24:00,73.0,47.0,30.11,ENE,57,3.0,9.0,39,0.00,,,0.00,,2013-08-13 21:24:00,
2013-08-13 16:46:00,74.0,45.0,30.10,East,92,3.0,6.0,35,0.00,,,0.00,,2013-08-13 21:46:00,
2013-08-13 16:54:00,74.0,44.0,30.10,NW,323,5.0,8.0,34,0.00,,,0.00,,2013-08-13 21:54:00,
2013-08-13 17:13:00,74.0,45.0,30.10,NNW,346,6.0,9.0,36,0.00,,,0.00,,2013-08-13 22:13:00,
2013-08-13 17:22:00,74.0,45.0,30.10,North,7,4.0,8.0,36,0.00,,,0.00,,2013-08-13 22:22:00,
2013-08-13 17:50:00,74.0,44.0,30.10,NW,309,1.0,6.0,34,0.00,,,0.00,,2013-08-13 22:50:00,
2013-08-13 17:56:00,74.0,45.0,30.09,NNE,21,3.0,6.0,35,0.00,,,0.00,,2013-08-13 22:56:00,
2013-08-13 18:13:00,74.0,47.0,30.09,NW,316,4.0,8.0,38,0.00,,,0.00,,2013-08-13 23:13:00,
2013-08-13 18:26:00,75.0,45.0,30.09,East,87,1.0,5.0,34,0.00,,,0.00,,2013-08-13 23:26:00,
2013-08-13 18:46:00,74.0,45.0,30.09,WNW,283,0.0,6.0,35,0.00,,,0.00,,2013-08-13 23:46:00,
2013-08-13 18:56:00,75.0,49.0,30.09,NNE,20,1.0,6.0,40,0.00,,,0.00,,2013-08-13 23:56:00,
2013-08-13 19:11:00,74.0,47.0,30.09,NNW,339,3.0,5.0,39,0.00,,,0.00,,2013-08-14 00:11:00,
2013-08-13 19:22:00,74.0,47.0,30.08,ESE,107,1.0,6.0,39,0.00,,,0.00,,2013-08-14 00:22:00,
2013-08-13 19:42:00,73.0,49.0,30.09,ENE,66,1.0,5.0,43,0.00,,,0.00,,2013-08-14 00:42:00,
2013-08-13 19:52:00,73.0,48.0,30.08,NE,37,1.0,5.0,41,0.00,,,0.00,,2013-08-14 00:52:00,
2013-08-13 20:11:00,72.0,46.0,30.08,NE,51,0.0,2.0,40,0.00,,,0.00,,2013-08-14 01:11:00,
2013-08-13 20:21:00,72.0,48.0,30.08,ENE,63,0.0,2.0,42,0.00,,,0.00,,2013-08-14 01:21:00,
2013-08-13 20:42:00,70.0,47.0,30.08,ENE,60,0.0,1.0,44,0.00,,,0.00,,2013-08-14 01:42:00,
2013-08-13 20:52:00,68.0,48.0,30.08,ENE,60,0.0,1.0,48,0.00,,,0.00,,2013-08-14 01:52:00,
2013-08-13 21:11:00,66.0,48.0,30.08,ENE,61,0.0,0.0,52,0.00,,,0.00,,2013-08-14 02:11:00,
2013-08-13 21:21:00,63.0,47.0,30.09,ENE,64,0.0,0.0,56,0.00,,,0.00,,2013-08-14 02:21:00,
2013-08-13 21:42:00,60.0,47.0,30.09,ENE,64,0.0,0.0,63,0.00,,,0.00,,2013-08-14 02:42:00,
2013-08-13 21:52:00,61.0,48.0,30.09,ENE,64,0.0,0.0,63,0.00,,,0.00,,2013-08-14 02:52:00,
2013-08-13 22:11:00,60.0,47.0,30.09,ENE,64,0.0,0.0,63,0.00,,,0.00,,2013-08-14 03:11:00,
2013-08-13 22:22:00,57.0,48.0,30.10,ENE,64,0.0,0.0,71,0.00,,,0.00,,2013-08-14 03:22:00,
2013-08-13 22:43:00,56.0,48.0,30.09,ENE,64,0.0,0.0,75,0.00,,,0.00,,2013-08-14 03:43:00,
2013-08-13 22:53:00,55.0,48.0,30.09,ENE,64,0.0,0.0,78,0.00,,,0.00,,2013-08-14 03:53:00,
2013-08-13 23:12:00,54.0,47.0,30.09,ENE,62,0.0,0.0,78,0.00,,,0.00,,2013-08-14 04:12:00,
2013-08-13 23:23:00,52.0,46.0,30.09,ENE,64,0.0,0.0,81,0.00,,,0.00,,2013-08-14 04:23:00,
2013-08-13 23:42:00,51.0,46.0,30.09,ENE,62,0.0,0.0,83,0.00,,,0.00,,2013-08-14 04:42:00,
2013-08-13 23:52:00,52.0,47.0,30.09,West,276,0.0,2.0,82,0.00,,,0.00,,2013-08-14 04:52:00,